Latest Weather Observations for Williamtown

IDN60801

Issued at 11:35 am EST Sunday 21 September 2014 (issued every 30 minutes, with the page automatically refreshed every 10 minutes)

About weather observations | Map of weather stations | Latest weather observations for NSW | Other Formats
Station Details ID: 061078 Name: WILLIAMTOWN RAAF Lat: -32.79 Lon: 151.84 Height: 9.0 m
Data from the previous 72 hours. | See also: Recent months at Williamtown
Date/Time
EST
Temp
°C
App
Temp
°C
Dew
Point
Rel
Hum
%
Delta-T
°C
Wind Press
QNH
hPa
Press
MSL
hPa
Rain
since 9 am
mm
Dir
 
Spd
km/h
Gust
km/h
Spd
kts
Gust
kts
21/11:30am 18.3 14.6 10.2 59 4.3 S 20 26 11 14 1029.7 - 0.0
21/11:00am 18.4 15.1 11.0 62 4.0 SSE 19 30 10 16 1029.9 - 0.0
21/10:30am 17.2 13.8 10.4 64 3.6 SSE 19 22 10 12 1030.1 - 0.0
21/10:00am 17.7 16.2 10.5 62 3.8 SW 9 13 5 7 1029.9 - 0.0
21/09:30am 17.1 16.0 10.7 66 3.4 NW 7 11 4 6 1030.0 - 0.0
21/09:00am 15.8 14.2 11.5 75 2.3 NW 11 13 6 7 1030.0 1030.1 0.2
21/08:30am 14.1 11.9 10.8 80 1.7 NW 13 15 7 8 1029.9 - 0.2
21/08:00am 12.6 10.3 10.5 87 1.1 NNW 13 15 7 8 1029.5 - 0.2
21/07:30am 12.2 9.9 10.4 89 0.9 NW 13 15 7 8 1029.4 - 0.2
21/07:00am 11.7 9.4 10.5 92 0.6 NW 13 17 7 9 1029.0 - 0.2
21/06:30am 11.2 9.6 10.2 94 0.5 NW 9 13 5 7 1028.6 - 0.2
21/06:00am 10.7 8.1 9.5 92 0.6 NW 13 17 7 9 1028.1 1028.2 0.2
21/05:30am 10.1 8.2 9.1 93 0.5 NNW 9 11 5 6 1027.7 - 0.2
21/05:00am 9.5 6.7 8.5 93 0.5 NNW 13 13 7 7 1027.2 - 0.2
21/04:30am 9.2 6.3 8.2 93 0.5 NW 13 15 7 8 1027.1 - 0.2
21/04:00am 9.0 6.4 7.9 93 0.5 NW 11 13 6 7 1026.9 - 0.2
21/03:30am 9.7 7.3 8.5 92 0.6 NNW 11 13 6 7 1027.0 - 0.2
21/03:00am 10.0 7.6 8.8 92 0.6 NNW 11 13 6 7 1026.9 1027.0 0.2
21/02:30am 10.0 7.3 8.8 92 0.6 NW 13 13 7 7 1027.0 - 0.2
21/02:00am 10.0 7.6 8.6 91 0.7 NW 11 17 6 9 1027.3 - 0.0
21/01:30am 8.9 6.6 7.6 91 0.6 NW 9 13 5 7 1027.3 - 0.0
21/01:00am 9.2 6.9 7.5 89 0.8 WNW 9 9 5 5 1027.3 - 0.0
21/12:30am 9.4 6.8 7.9 90 0.7 NW 11 13 6 7 1027.5 - 0.0
21/12:00am 9.8 7.3 8.3 90 0.7 NW 11 13 6 7 1027.7 1027.8 0.0
 
Date/Time
EST
Temp
°C
App
Temp
°C
Dew
Point
Rel
Hum
%
Delta-T
°C
Wind Press
QNH
hPa
Press
MSL
hPa
Rain
since 9 am
mm
Dir
 
Spd
km/h
Gust
km/h
Spd
kts
Gust
kts
20/11:30pm 9.6 7.4 7.7 88 0.9 WNW 9 13 5 7 1027.7 - 0.0
20/11:00pm 9.9 7.3 7.8 87 1.0 NW 11 13 6 7 1027.7 - 0.0
20/10:30pm 9.8 7.6 7.7 87 1.0 NW 9 11 5 6 1027.6 - 0.0
20/10:00pm 8.9 6.9 7.0 88 0.9 NW 7 7 4 4 1027.4 - 0.0
20/09:30pm 9.1 7.1 6.9 86 1.0 NW 7 7 4 4 1027.4 - 0.0
20/09:00pm 8.6 7.9 6.9 89 0.8 WNW 0 0 0 0 1027.3 1027.4 0.0
20/08:30pm 9.7 9.0 6.9 83 1.3 CALM 0 0 0 0 1027.1 - 0.0
20/08:00pm 10.8 9.8 7.2 78 1.7 SSE 2 7 1 4 1026.7 - 0.0
20/07:30pm 12.7 10.4 7.3 69 2.6 S 9 11 5 6 1026.4 - 0.0
20/07:00pm 13.7 11.1 7.6 66 3.0 S 11 15 6 8 1026.1 - 0.0
20/06:30pm 14.3 11.3 7.8 65 3.2 SSE 13 17 7 9 1025.5 - 0.0
20/06:00pm 15.1 12.1 7.8 61 3.6 SSE 13 22 7 12 1025.0 1025.1 0.0
20/05:30pm 16.0 11.9 7.8 58 4.1 SSE 19 26 10 14 1024.6 - 0.0
20/05:00pm 16.7 11.6 7.7 55 4.5 SSE 24 30 13 16 1024.1 - 0.0
20/04:30pm 16.6 11.0 7.3 54 4.6 S 26 33 14 18 1023.8 - 0.0
20/04:00pm 17.7 11.9 8.0 53 4.9 S 28 37 15 20 1023.6 - 0.0
20/03:30pm 17.9 12.6 8.3 53 4.9 S 26 35 14 19 1023.1 - 0.0
20/03:00pm 17.9 12.7 9.0 56 4.6 SSE 26 32 14 17 1023.1 1023.2 0.0
20/02:30pm 18.4 13.3 9.2 55 4.8 SSE 26 37 14 20 1023.1 - 0.0
20/02:00pm 18.5 13.3 8.9 53 5.0 S 26 35 14 19 1023.2 - 0.0
20/01:30pm 19.1 13.1 3.5 35 7.3 SSE 24 32 13 17 1023.2 - 0.0
20/01:00pm 18.8 12.7 4.8 39 6.7 S 26 32 14 17 1023.3 - 0.0
20/12:30pm 19.4 13.9 5.7 40 6.7 SSE 24 30 13 16 1023.4 - 0.0
20/12:00pm 18.7 13.1 5.5 42 6.4 SSE 24 30 13 16 1023.5 1023.6 0.0
20/11:30am 18.4 14.1 7.0 47 5.7 SSE 19 28 10 15 1023.8 - 0.0
20/11:00am 18.8 15.7 5.7 42 6.4 WSW 11 20 6 11 1023.9 - 0.0
20/10:30am 18.0 15.9 5.9 45 5.9 WSW 6 11 3 6 1024.1 - 0.0
20/10:00am 16.9 14.3 6.2 49 5.2 W 9 13 5 7 1024.3 - 0.0
20/09:30am 15.7 12.3 6.1 53 4.6 WNW 13 19 7 10 1024.4 - 0.0
20/09:00am 14.5 10.5 5.1 53 4.4 NW 15 19 8 10 1024.3 1024.4 0.0
20/08:30am 13.0 8.6 4.9 58 3.7 NW 17 22 9 12 1024.2 - 0.0
20/08:00am 11.4 7.4 4.8 64 3.0 NW 15 20 8 11 1023.9 - 0.0
20/07:30am 9.6 6.2 5.9 78 1.7 WNW 13 15 7 8 1023.8 - 0.0
20/07:00am 8.2 5.5 5.5 83 1.2 WNW 9 11 5 6 1023.3 - 0.0
20/06:30am 6.7 3.9 5.1 89 0.7 WNW 9 13 5 7 1022.9 - 0.0
20/06:00am 5.9 2.2 4.5 91 0.6 NW 13 15 7 8 1022.2 1022.3 0.0
20/05:30am 5.3 1.6 4.4 94 0.4 NW 13 15 7 8 1021.9 - 0.0
20/05:00am 5.3 2.0 4.4 94 0.4 WNW 11 13 6 7 1021.4 - 0.0
20/04:30am 5.3 2.4 4.4 94 0.4 NW 9 11 5 6 1021.1 - 0.0
20/04:00am 5.6 2.7 4.7 94 0.4 NW 9 9 5 5 1020.8 - 0.0
20/03:30am 5.2 2.2 4.3 94 0.4 NW 9 11 5 6 1020.9 - 0.0
20/03:00am 5.0 2.0 4.3 95 0.3 WNW 9 11 5 6 1020.8 1020.9 0.0
20/02:30am 4.7 3.4 4.0 95 0.3 CALM 0 9 0 5 1020.9 - 0.0
20/02:00am 4.4 3.0 3.7 95 0.3 CALM 0 0 0 0 1021.0 - 0.0
20/01:30am 4.6 3.3 3.9 95 0.3 CALM 0 0 0 0 1021.3 - 0.0
20/01:00am 5.4 4.2 4.5 94 0.4 CALM 0 0 0 0 1021.3 - 0.0
20/12:30am 5.5 4.2 4.3 92 0.5 CALM 0 0 0 0 1021.4 - 0.0
20/12:00am 5.2 3.9 4.3 94 0.4 CALM 0 0 0 0 1021.5 1021.6 0.0
 
Date/Time
EST
Temp
°C
App
Temp
°C
Dew
Point
Rel
Hum
%
Delta-T
°C
Wind Press
QNH
hPa
Press
MSL
hPa
Rain
since 9 am
mm
Dir
 
Spd
km/h
Gust
km/h
Spd
kts
Gust
kts
19/11:30pm 5.8 4.6 4.6 92 0.5 CALM 0 0 0 0 1021.8 - 0.0
19/11:00pm 6.4 5.2 4.8 89 0.7 CALM 0 0 0 0 1021.9 - 0.0
19/10:30pm 6.6 5.4 4.8 88 0.8 CALM 0 0 0 0 1021.9 - 0.0
19/10:00pm 7.0 5.9 5.2 88 0.8 CALM 0 0 0 0 1021.8 - 0.0
19/09:30pm 7.6 6.5 4.9 83 1.2 CALM 0 0 0 0 1021.5 - 0.0
19/09:00pm 7.6 6.5 5.1 84 1.1 CALM 0 0 0 0 1021.3 1021.4 0.0
19/08:30pm 8.2 6.8 5.3 82 1.3 N 2 7 1 4 1021.2 - 0.0
19/08:00pm 8.9 7.9 5.6 80 1.5 CALM 0 0 0 0 1021.0 - 0.0
19/07:30pm 9.1 6.7 5.3 77 1.7 NNE 7 9 4 5 1020.7 - 0.0
19/07:00pm 11.7 8.9 5.1 64 3.0 NE 9 11 5 6 1020.4 - 0.0
19/06:30pm 11.9 9.6 5.9 66 2.8 ENE 7 9 4 5 1020.1 - 0.0
19/06:00pm 14.6 11.7 4.4 50 4.7 E 9 11 5 6 1019.8 1019.9 0.0
19/05:30pm 15.5 12.0 3.7 45 5.4 E 11 13 6 7 1019.6 - 0.0
19/05:00pm 16.1 12.3 3.7 43 5.7 ESE 13 15 7 8 1019.4 - 0.0
19/04:30pm 16.7 13.2 3.4 41 6.1 E 11 15 6 8 1019.2 - 0.0
19/04:00pm 16.9 13.4 3.4 40 6.2 ESE 11 15 6 8 1019.2 - 0.0
19/03:30pm 17.0 13.1 3.3 40 6.3 SE 13 17 7 9 1019.2 - 0.0
19/03:00pm 16.8 12.5 3.0 39 6.3 SE 15 19 8 10 1019.2 1019.3 0.0
19/02:30pm 17.2 12.9 3.3 39 6.4 SSE 15 20 8 11 1019.4 - 0.0
19/02:00pm 17.5 12.8 3.1 38 6.6 SSE 17 20 9 11 1019.4 - 0.0
19/01:30pm 17.5 13.1 2.8 37 6.7 SSE 15 19 8 10 1019.5 - 0.0
19/01:00pm 17.5 12.7 2.5 36 6.8 S 17 19 9 10 1020.0 - 0.0
19/12:30pm 17.6 14.0 3.0 37 6.7 S 11 19 6 10 1020.2 - 0.0
19/12:00pm 17.1 12.3 2.8 38 6.5 SE 17 26 9 14 1020.6 1020.7 0.0
19/11:30am 17.3 13.5 1.9 35 6.9 W 11 17 6 9 1021.0 - 0.0
19/11:00am 17.6 13.8 1.7 34 7.1 NW 11 19 6 10 1021.6 - 0.0
19/10:30am 16.6 12.8 1.7 36 6.6 WSW 11 19 6 10 1022.1 - 0.0
19/10:00am 15.7 11.5 1.8 39 6.1 NW 13 19 7 10 1022.4 - 0.0
19/09:30am 15.5 11.6 3.4 44 5.5 W 13 20 7 11 1022.6 - 0.0
19/09:00am 15.0 10.5 4.1 48 5.0 WNW 17 22 9 12 1022.6 1022.7 0.0
19/08:30am 13.8 9.3 4.1 52 4.4 WNW 17 24 9 13 1022.6 - 0.0
19/08:00am 12.7 7.9 4.8 58 3.6 WNW 19 24 10 13 1022.6 - 0.0
19/07:30am 11.1 6.8 5.4 68 2.6 WNW 17 20 9 11 1022.3 - 0.0
19/07:00am 9.3 5.4 5.5 77 1.7 NW 15 19 8 10 1022.3 - 0.0
19/06:30am 7.9 3.9 4.7 80 1.4 NW 15 17 8 9 1022.0 - 0.0
19/06:00am 7.0 2.6 4.5 84 1.1 NW 17 19 9 10 1021.8 1021.9 0.0
19/05:30am 6.6 3.0 4.8 88 0.8 NW 13 15 7 8 1021.5 - 0.0
19/05:00am 6.6 3.0 5.0 89 0.7 NW 13 15 7 8 1021.2 - 0.0
19/04:30am 6.7 3.1 4.9 88 0.8 NW 13 15 7 8 1020.9 - 0.0
19/04:00am 6.6 3.3 4.5 86 0.9 WNW 11 13 6 7 1020.6 - 0.0
19/03:30am 6.8 3.5 4.7 86 0.9 NW 11 13 6 7 1020.5 - 0.0
19/03:00am 7.2 6.1 4.9 85 1.0 CALM 0 6 0 3 1020.5 1020.6 0.0
19/02:30am 7.8 4.9 4.6 80 1.4 NW 9 13 5 7 1020.5 - 0.0
19/02:00am 8.2 4.5 4.5 77 1.6 NW 13 17 7 9 1020.8 - 0.0
19/01:30am 8.4 4.8 4.8 78 1.6 NW 13 15 7 8 1020.9 - 0.0
19/01:00am 8.5 4.9 4.9 78 1.6 NW 13 13 7 7 1021.0 - 0.0
19/12:30am 8.6 5.0 5.0 78 1.6 NW 13 13 7 7 1021.1 - 0.0
19/12:00am 8.8 5.6 5.2 78 1.6 NW 11 13 6 7 1021.3 1021.4 0.0
 
Date/Time
EST
Temp
°C
App
Temp
°C
Dew
Point
Rel
Hum
%
Delta-T
°C
Wind Press
QNH
hPa
Press
MSL
hPa
Rain
since 9 am
mm
Dir
 
Spd
km/h
Gust
km/h
Spd
kts
Gust
kts
18/11:30pm 8.7 5.2 5.4 80 1.5 NW 13 13 7 7 1021.5 - 0.0
18/11:00pm 8.7 5.3 5.8 82 1.3 NW 13 13 7 7 1021.5 - 0.0
18/10:30pm 9.0 5.9 5.4 78 1.6 NW 11 11 6 6 1021.5 - 0.0
18/10:00pm 9.5 6.5 5.8 78 1.7 NW 11 13 6 7 1021.5 - 0.0
18/09:30pm 9.7 6.7 5.8 77 1.8 NW 11 13 6 7 1021.5 - 0.0
18/09:00pm 9.8 6.8 5.9 77 1.8 NW 11 13 6 7 1021.2 1021.3 0.0
18/08:30pm 9.6 7.0 6.1 79 1.6 WNW 9 9 5 5 1020.9 - 0.0
18/08:00pm 10.5 8.7 5.5 71 2.3 WSW 4 9 2 5 1020.7 - 0.0
18/07:30pm 11.7 9.9 5.4 65 2.9 S 4 7 2 4 1020.1 - 0.0
18/07:00pm 12.4 9.7 5.5 63 3.2 SSE 9 15 5 8 1019.7 - 0.0
18/06:31pm 13.4 9.7 4.7 55 4.0 S 13 17 7 9 1019.3 - 0.0
18/06:30pm 13.5 9.8 4.6 55 4.1 S 13 17 7 9 1019.3 - 0.0
18/06:00pm 13.5 9.9 4.8 55 4.0 SE 13 17 7 9 1018.8 1018.9 0.0
18/05:30pm 14.6 10.0 3.9 48 4.9 SSE 17 19 9 10 1018.4 - 0.0
18/05:00pm 15.8 10.1 2.7 41 5.9 SSE 22 30 12 16 1017.9 - 0.0
18/04:30pm 16.4 10.3 3.0 40 6.1 SSE 24 33 13 18 1017.5 - 0.0
18/04:00pm 16.9 10.3 1.9 36 6.7 SSE 26 32 14 17 1017.1 - 0.0
18/03:30pm 17.4 11.1 1.7 35 7.0 SSE 24 30 13 16 1016.9 - 0.0
18/03:00pm 17.3 10.8 2.9 38 6.6 SSE 26 33 14 18 1016.9 1017.0 0.0
18/02:30pm 17.4 10.6 1.1 33 7.2 SSE 26 33 14 18 1017.0 - 0.0
18/02:00pm 17.6 11.2 1.1 33 7.3 SSE 24 32 13 17 1017.0 - 0.0
18/01:30pm 18.5 11.5 1.9 33 7.5 SSE 28 33 15 18 1017.3 - 0.0
18/01:00pm 18.1 10.8 2.6 35 7.1 SSE 30 35 16 19 1017.4 - 0.0
18/12:30pm 18.2 11.0 0.4 30 7.8 S 28 33 15 18 1017.3 - 0.0
18/12:00pm 19.5 14.1 -1.3 24 8.9 SSW 17 33 9 18 1017.6 1017.7 0.0

Other Formats:

Comma delimited format used in spreadsheet applications
http://www.bom.gov.au/fwo/IDN60801/IDN60801.94776.axf

JavaScript Object Notation format (JSON) in row-major order
http://www.bom.gov.au/fwo/IDN60801/IDN60801.94776.json